Time;durP1;ratioP1;P1;durP2;ratioP2;P2;SDS_P1;SDS_P2;PMS_P1;PMS_P2;Temp;Humidity;BMP_temperature;BMP_pressure;BME280_temperature;BME280_humidity;BME280_pressure;Samples;Min_cycle;Max_cycle;Signal;HPM_P1;HPM_P2
2021/07/17 00:02:10;;;;;;;20.73;11.53;;;;;;;;;;5052494;28;20413;-79
2021/07/17 00:04:36;;;;;;;16.80;10.83;;;;;;;;;;5053365;28;20443;-78
2021/07/17 00:07:02;;;;;;;23.43;11.17;;;;;;;;;;5053421;28;20904;-79
2021/07/17 00:09:28;;;;;;;19.60;11.00;;;;;;;;;;5053449;28;20418;-79
2021/07/17 00:11:54;;;;;;;21.10;11.60;;;;;;;;;;5053453;28;20972;-79
2021/07/17 00:14:21;;;;;;;22.30;11.07;;;;;;;;;;5051892;28;20440;-79
2021/07/17 00:16:47;;;;;;;22.10;10.63;;;;;;;;;;5053543;28;20448;-79
2021/07/17 00:19:13;;;;;;;18.20;10.20;;;;;;;;;;5053273;28;20415;-79
2021/07/17 00:21:39;;;;;;;19.40;9.50;;;;;;;;;;5053290;28;20421;-80
2021/07/17 00:24:05;;;;;;;19.60;9.93;;;;;;;;;;5051704;28;20824;-78
2021/07/17 00:26:31;;;;;;;24.13;9.10;;;;;;;;;;5053376;28;20451;-78
2021/07/17 00:28:57;;;;;;;18.10;10.83;;;;;;;;;;5053238;28;20416;-78
2021/07/17 00:31:23;;;;;;;22.80;10.17;;;;;;;;;;5052908;28;20902;-79
2021/07/17 00:33:49;;;;;;;13.70;9.53;;;;;;;;;;5052763;28;20447;-79
2021/07/17 00:36:15;;;;;;;17.40;10.17;;;;;;;;;;5053019;28;20769;-79
2021/07/17 00:38:41;;;;;;;23.47;12.03;;;;;;;;;;5035413;28;20412;-79
2021/07/17 00:41:07;;;;;;;11.97;10.07;;;;;;;;;;5051760;28;20439;-79
2021/07/17 00:43:34;;;;;;;14.77;9.37;;;;;;;;;;5052522;28;20808;-79
2021/07/17 00:46:00;;;;;;;16.73;11.20;;;;;;;;;;5051743;28;20452;-79
2021/07/17 00:48:26;;;;;;;15.70;10.80;;;;;;;;;;5051861;28;20975;-79
2021/07/17 00:50:52;;;;;;;21.93;11.27;;;;;;;;;;5053080;28;20459;-80
2021/07/17 00:53:18;;;;;;;16.70;10.03;;;;;;;;;;5052656;28;20932;-80
2021/07/17 00:55:46;;;;;;;17.50;10.90;;;;;;;;;;5051441;28;20443;-79
2021/07/17 00:58:13;;;;;;;17.47;11.40;;;;;;;;;;5052915;28;20783;-79
2021/07/17 01:00:39;;;;;;;22.40;11.20;;;;;;;;;;5051709;28;20450;-79
2021/07/17 01:03:07;;;;;;;23.23;12.00;;;;;;;;;;5052760;28;20483;-79
2021/07/17 01:05:33;;;;;;;20.50;12.83;;;;;;;;;;5052813;28;20436;-78
2021/07/17 01:07:59;;;;;;;19.70;11.20;;;;;;;;;;5052800;28;20407;-79
2021/07/17 01:10:25;;;;;;;23.87;12.50;;;;;;;;;;5052822;28;20529;-78
2021/07/17 01:12:52;;;;;;;18.93;12.80;;;;;;;;;;5051306;28;20408;-78
2021/07/17 01:15:19;;;;;;;24.03;13.03;;;;;;;;;;5052964;28;20486;-78
2021/07/17 01:17:45;;;;;;;23.00;12.20;;;;;;;;;;5051513;28;20448;-79
2021/07/17 01:20:13;;;;;;;22.17;14.20;;;;;;;;;;5052896;28;20416;-79
2021/07/17 01:22:39;;;;;;;25.07;13.97;;;;;;;;;;5052786;28;20408;-78
2021/07/17 01:25:07;;;;;;;22.80;12.40;;;;;;;;;;5052448;28;20438;-78
2021/07/17 01:27:33;;;;;;;24.60;14.43;;;;;;;;;;5052837;28;20408;-78
2021/07/17 01:29:59;;;;;;;22.13;13.03;;;;;;;;;;5052364;28;20459;-79
2021/07/17 01:32:25;;;;;;;32.47;16.57;;;;;;;;;;5052763;28;20408;-78
2021/07/17 01:34:51;;;;;;;29.87;15.10;;;;;;;;;;5052103;28;20459;-79
2021/07/17 01:37:17;;;;;;;31.03;13.90;;;;;;;;;;5052665;28;20415;-78
2021/07/17 01:39:43;;;;;;;19.87;15.50;;;;;;;;;;5052515;28;20419;-79
2021/07/17 01:42:09;;;;;;;30.90;14.73;;;;;;;;;;5052333;28;20825;-79
2021/07/17 01:44:45;;;;;;;30.37;14.67;;;;;;;;;;5052085;28;20432;-78
2021/07/17 01:47:12;;;;;;;29.10;15.63;;;;;;;;;;5051554;28;20502;-79
2021/07/17 01:49:38;;;;;;;31.33;15.47;;;;;;;;;;5056005;28;20415;-78
2021/07/17 01:52:04;;;;;;;30.30;17.27;;;;;;;;;;5055863;28;20447;-78
2021/07/17 01:54:34;;;;;;;32.60;16.20;;;;;;;;;;5055640;28;20424;-78
2021/07/17 01:57:04;;;;;;;35.23;16.90;;;;;;;;;;5055967;28;20768;-80
2021/07/17 01:59:30;;;;;;;32.60;15.67;;;;;;;;;;5056011;28;20453;-79
2021/07/17 02:01:56;;;;;;;27.93;14.20;;;;;;;;;;5054544;28;20427;-78
2021/07/17 02:04:22;;;;;;;28.60;15.20;;;;;;;;;;5055336;28;20436;-78
2021/07/17 02:06:48;;;;;;;24.70;13.33;;;;;;;;;;5055955;28;20438;-79
2021/07/17 02:09:14;;;;;;;25.57;15.37;;;;;;;;;;5055963;28;20878;-79
2021/07/17 02:11:40;;;;;;;26.57;14.33;;;;;;;;;;5038178;28;20467;-79
2021/07/17 02:14:06;;;;;;;31.93;14.83;;;;;;;;;;5055362;28;20412;-79
2021/07/17 02:16:32;;;;;;;21.57;14.57;;;;;;;;;;5055614;28;20458;-79
2021/07/17 02:19:04;;;;;;;28.57;14.90;;;;;;;;;;5055576;28;20411;-79
2021/07/17 02:21:30;;;;;;;30.00;15.27;;;;;;;;;;5055621;28;20412;-78
2021/07/17 02:23:56;;;;;;;23.20;14.93;;;;;;;;;;5055082;28;20550;-79
2021/07/17 02:26:22;;;;;;;24.57;14.70;;;;;;;;;;5055283;28;20427;-79
2021/07/17 02:28:48;;;;;;;26.00;15.57;;;;;;;;;;5055363;28;20911;-79
2021/07/17 02:31:14;;;;;;;37.00;17.77;;;;;;;;;;5054061;28;20467;-79
2021/07/17 02:33:40;;;;;;;38.10;15.80;;;;;;;;;;5054898;28;20416;-79
2021/07/17 02:36:06;;;;;;;29.63;16.10;;;;;;;;;;5037324;28;20486;-78
2021/07/17 02:38:32;;;;;;;34.90;16.40;;;;;;;;;;5055129;28;20505;-78
2021/07/17 02:40:59;;;;;;;29.87;16.17;;;;;;;;;;5055209;28;20434;-78
2021/07/17 02:43:25;;;;;;;36.93;16.80;;;;;;;;;;5053578;28;20416;-79
2021/07/17 02:45:51;;;;;;;28.13;16.40;;;;;;;;;;5054953;28;20935;-78
2021/07/17 02:48:17;;;;;;;34.03;16.80;;;;;;;;;;5054935;28;20821;-78
2021/07/17 02:50:43;;;;;;;38.17;16.97;;;;;;;;;;5053620;28;21027;-79
2021/07/17 02:53:09;;;;;;;36.47;17.63;;;;;;;;;;5054583;28;20416;-79
2021/07/17 02:55:35;;;;;;;36.33;18.27;;;;;;;;;;5054791;28;20428;-78
2021/07/17 02:58:01;;;;;;;39.50;18.87;;;;;;;;;;5054880;28;20466;-78
2021/07/17 03:00:32;;;;;;;31.47;17.20;;;;;;;;;;5054631;28;20408;-78
2021/07/17 03:02:58;;;;;;;41.77;17.50;;;;;;;;;;5054399;28;20396;-79
2021/07/17 03:05:24;;;;;;;44.10;19.60;;;;;;;;;;5054548;28;20503;-79
2021/07/17 03:07:50;;;;;;;30.87;18.70;;;;;;;;;;5054563;28;20420;-78
2021/07/17 03:10:16;;;;;;;34.03;17.37;;;;;;;;;;5054599;28;20474;-78
2021/07/17 03:12:42;;;;;;;41.33;19.90;;;;;;;;;;5053197;28;20461;-79
2021/07/17 03:15:09;;;;;;;42.03;20.63;;;;;;;;;;5054149;28;20428;-78
2021/07/17 03:17:35;;;;;;;36.90;19.03;;;;;;;;;;5054303;28;20436;-79
2021/07/17 03:20:01;;;;;;;38.00;18.13;;;;;;;;;;5054439;28;20423;-79
2021/07/17 03:22:27;;;;;;;39.93;17.57;;;;;;;;;;5054546;28;20435;-78
2021/07/17 03:24:53;;;;;;;33.77;17.20;;;;;;;;;;5054021;28;20428;-78
2021/07/17 03:27:19;;;;;;;42.13;18.93;;;;;;;;;;5054163;28;20412;-79
2021/07/17 03:29:44;;;;;;;43.23;20.20;;;;;;;;;;5054198;28;20412;-79
2021/07/17 03:32:11;;;;;;;36.30;19.40;;;;;;;;;;5054346;28;20400;-78
2021/07/17 03:34:37;;;;;;;35.90;19.60;;;;;;;;;;5053547;28;20958;-79
2021/07/17 03:37:04;;;;;;;39.07;17.20;;;;;;;;;;5053973;28;20409;-79
2021/07/17 03:39:30;;;;;;;38.93;17.50;;;;;;;;;;5054058;28;20408;-80
2021/07/17 03:41:56;;;;;;;43.27;17.80;;;;;;;;;;5053936;28;21035;-79
2021/07/17 03:44:26;;;;;;;30.67;16.37;;;;;;;;;;5053514;28;20428;-80
2021/07/17 03:46:52;;;;;;;31.20;16.87;;;;;;;;;;5053817;28;20419;-79
2021/07/17 03:49:18;;;;;;;39.37;17.13;;;;;;;;;;5053756;28;20404;-79
2021/07/17 03:51:44;;;;;;;31.10;15.93;;;;;;;;;;5052500;28;21018;-79
2021/07/17 03:54:10;;;;;;;36.90;16.83;;;;;;;;;;5053357;28;20482;-78
2021/07/17 03:56:36;;;;;;;42.83;18.40;;;;;;;;;;5052413;28;20958;-79
2021/07/17 03:59:02;;;;;;;41.23;16.87;;;;;;;;;;5053598;28;20413;-78
2021/07/17 04:01:28;;;;;;;38.47;17.50;;;;;;;;;;5035840;28;20416;-79
2021/07/17 04:03:54;;;;;;;33.13;17.30;;;;;;;;;;5053297;28;20412;-79
2021/07/17 04:06:20;;;;;;;37.63;16.97;;;;;;;;;;5052355;28;20427;-80
2021/07/17 04:08:46;;;;;;;21.17;15.97;;;;;;;;;;5053817;28;20507;-78
2021/07/17 04:11:12;;;;;;;38.27;17.40;;;;;;;;;;5052811;28;20968;-79
2021/07/17 04:13:38;;;;;;;34.97;16.53;;;;;;;;;;5053330;28;20412;-80
2021/07/17 04:16:04;;;;;;;33.93;16.60;;;;;;;;;;5053585;28;20439;-79
2021/07/17 04:18:30;;;;;;;32.87;16.43;;;;;;;;;;5052408;28;20465;-78
2021/07/17 04:20:56;;;;;;;28.10;14.87;;;;;;;;;;5052134;28;20507;-78
2021/07/17 04:23:22;;;;;;;27.23;17.40;;;;;;;;;;5052916;28;20461;-79
2021/07/17 04:25:48;;;;;;;32.17;17.00;;;;;;;;;;5053246;28;20936;-78
2021/07/17 04:28:14;;;;;;;36.70;17.37;;;;;;;;;;5052094;28;20757;-79
2021/07/17 04:30:40;;;;;;;26.60;16.10;;;;;;;;;;5035328;28;20566;-80
2021/07/17 04:33:06;;;;;;;35.63;17.93;;;;;;;;;;5052835;28;20416;-79
2021/07/17 04:35:32;;;;;;;30.93;16.53;;;;;;;;;;5035221;28;20469;-78
2021/07/17 04:37:58;;;;;;;31.87;16.93;;;;;;;;;;5051979;28;20408;-78
2021/07/17 04:40:24;;;;;;;34.37;16.80;;;;;;;;;;5053186;28;20763;-78
2021/07/17 04:42:50;;;;;;;32.93;17.30;;;;;;;;;;5051449;28;20432;-79
2021/07/17 04:45:16;;;;;;;26.00;15.70;;;;;;;;;;5052826;28;20471;-79
2021/07/17 04:47:43;;;;;;;28.50;17.37;;;;;;;;;;5052950;28;20790;-80
2021/07/17 04:50:09;;;;;;;37.10;17.77;;;;;;;;;;5052950;28;20459;-78
2021/07/17 04:52:35;;;;;;;30.70;16.50;;;;;;;;;;5052927;28;20745;-80
2021/07/17 04:55:01;;;;;;;34.43;16.90;;;;;;;;;;5052610;28;21031;-79
2021/07/17 04:57:27;;;;;;;32.40;17.53;;;;;;;;;;5052735;28;20379;-80
2021/07/17 04:59:53;;;;;;;30.73;17.10;;;;;;;;;;5051718;28;20409;-79
2021/07/17 05:02:19;;;;;;;28.43;15.73;;;;;;;;;;5052901;28;20416;-79
2021/07/17 05:04:45;;;;;;;30.83;15.00;;;;;;;;;;5034828;28;20468;-79
2021/07/17 05:07:11;;;;;;;30.77;15.67;;;;;;;;;;5051525;28;20416;-79
2021/07/17 05:09:37;;;;;;;31.87;15.10;;;;;;;;;;5052735;28;20818;-79
2021/07/17 05:12:03;;;;;;;29.70;14.90;;;;;;;;;;5052906;28;20416;-79
2021/07/17 05:14:29;;;;;;;28.03;14.83;;;;;;;;;;5052358;28;20436;-79
2021/07/17 05:16:55;;;;;;;22.53;16.13;;;;;;;;;;5051567;28;20408;-79
2021/07/17 05:19:21;;;;;;;34.67;16.90;;;;;;;;;;5051090;28;20499;-80
2021/07/17 05:21:47;;;;;;;32.87;15.83;;;;;;;;;;5050935;28;20418;-80
2021/07/17 05:24:13;;;;;;;37.07;16.07;;;;;;;;;;5055500;28;20436;-79
2021/07/17 05:26:39;;;;;;;25.43;14.60;;;;;;;;;;5056293;28;20465;-79
2021/07/17 05:29:05;;;;;;;28.37;14.40;;;;;;;;;;5055103;28;20549;-79
2021/07/17 05:31:31;;;;;;;24.10;14.37;;;;;;;;;;5056516;28;20537;-78
2021/07/17 05:33:57;;;;;;;27.67;14.20;;;;;;;;;;5056019;28;20892;-79
2021/07/17 05:36:23;;;;;;;28.67;14.37;;;;;;;;;;5056374;28;20423;-79
2021/07/17 05:38:49;;;;;;;29.20;13.37;;;;;;;;;;5055362;28;20430;-80
2021/07/17 05:41:15;;;;;;;26.83;14.53;;;;;;;;;;5056316;28;20415;-79
2021/07/17 05:43:41;;;;;;;26.70;13.77;;;;;;;;;;5054545;28;20493;-78
2021/07/17 05:46:07;;;;;;;24.33;13.60;;;;;;;;;;5056182;28;20526;-80
2021/07/17 05:48:33;;;;;;;22.37;11.77;;;;;;;;;;5056127;28;20420;-79
2021/07/17 05:50:59;;;;;;;25.17;11.70;;;;;;;;;;5056197;28;20997;-79
2021/07/17 05:53:25;;;;;;;30.50;12.93;;;;;;;;;;5055733;28;20408;-79
2021/07/17 05:55:53;;;;;;;30.73;12.40;;;;;;;;;;5054611;28;20477;-80
2021/07/17 05:58:20;;;;;;;26.43;12.00;;;;;;;;;;5055936;28;20443;-80
2021/07/17 06:00:46;;;;;;;20.70;11.77;;;;;;;;;;5055971;28;20416;-80
2021/07/17 06:03:12;;;;;;;21.40;13.30;;;;;;;;;;5055621;28;20431;-79
2021/07/17 06:05:38;;;;;;;30.43;12.10;;;;;;;;;;5055798;28;20511;-79
2021/07/17 06:08:04;;;;;;;24.80;12.20;;;;;;;;;;5055627;28;20451;-79
2021/07/17 06:10:30;;;;;;;18.70;10.73;;;;;;;;;;5054506;28;20460;-79
2021/07/17 06:12:56;;;;;;;21.23;12.90;;;;;;;;;;5054192;28;20469;-79
2021/07/17 06:15:22;;;;;;;19.50;11.80;;;;;;;;;;5054535;28;20432;-78
2021/07/17 06:17:52;;;;;;;27.07;12.70;;;;;;;;;;5054506;28;20412;-79
2021/07/17 06:20:19;;;;;;;28.07;13.40;;;;;;;;;;5055348;28;20885;-79
2021/07/17 06:22:45;;;;;;;21.07;13.00;;;;;;;;;;5055046;28;20906;-80
2021/07/17 06:25:11;;;;;;;19.90;12.43;;;;;;;;;;5053872;28;20534;-79
2021/07/17 06:27:37;;;;;;;26.33;13.33;;;;;;;;;;5055289;28;20412;-78
2021/07/17 06:30:04;;;;;;;23.63;13.37;;;;;;;;;;5054999;28;20517;-79
2021/07/17 06:32:30;;;;;;;41.03;13.50;;;;;;;;;;5053720;28;20511;-79
2021/07/17 06:34:56;;;;;;;24.70;13.40;;;;;;;;;;5054560;28;20459;-80
2021/07/17 06:37:22;;;;;;;24.47;13.77;;;;;;;;;;5055168;28;20462;-78
2021/07/17 06:39:48;;;;;;;27.80;12.73;;;;;;;;;;5055077;28;20408;-79
2021/07/17 06:42:14;;;;;;;22.83;14.50;;;;;;;;;;5054918;28;20412;-80
2021/07/17 06:44:40;;;;;;;30.30;12.60;;;;;;;;;;5054456;28;20435;-80
2021/07/17 06:47:06;;;;;;;23.10;12.20;;;;;;;;;;5055224;28;20791;-79
2021/07/17 06:49:32;;;;;;;17.57;12.17;;;;;;;;;;5053819;28;20841;-78
2021/07/17 06:51:58;;;;;;;26.23;13.40;;;;;;;;;;5054918;28;20499;-78
2021/07/17 06:54:24;;;;;;;30.37;13.67;;;;;;;;;;5053128;28;20578;-79
2021/07/17 06:56:50;;;;;;;25.57;15.37;;;;;;;;;;5053499;28;20987;-79
2021/07/17 06:59:16;;;;;;;26.70;13.80;;;;;;;;;;5054756;28;20412;-78
2021/07/17 07:01:42;;;;;;;27.03;14.97;;;;;;;;;;5054743;28;20415;-79
2021/07/17 07:04:08;;;;;;;39.23;13.50;;;;;;;;;;5054357;28;20424;-79
2021/07/17 07:06:34;;;;;;;31.30;14.90;;;;;;;;;;5054573;28;20754;-79
2021/07/17 07:09:00;;;;;;;20.23;13.37;;;;;;;;;;5053232;28;20927;-80
2021/07/17 07:11:26;;;;;;;33.80;14.80;;;;;;;;;;5054488;28;20464;-78
2021/07/17 07:13:52;;;;;;;27.20;14.03;;;;;;;;;;5054247;28;20426;-79
2021/07/17 07:16:18;;;;;;;22.00;13.77;;;;;;;;;;5054611;28;20379;-80
2021/07/17 07:18:44;;;;;;;23.83;14.83;;;;;;;;;;5053156;28;20412;-79
2021/07/17 07:21:10;;;;;;;22.60;14.80;;;;;;;;;;5054345;28;20417;-79
2021/07/17 07:23:36;;;;;;;32.40;15.60;;;;;;;;;;5052801;28;20419;-79
2021/07/17 07:26:03;;;;;;;26.10;14.23;;;;;;;;;;5054315;28;20446;-80
2021/07/17 07:28:29;;;;;;;25.10;14.93;;;;;;;;;;5054504;28;20949;-80
2021/07/17 07:30:55;;;;;;;33.97;18.20;;;;;;;;;;5054290;28;20463;-78
2021/07/17 07:33:21;;;;;;;33.90;19.27;;;;;;;;;;5054097;28;20408;-79
2021/07/17 07:35:47;;;;;;;29.10;18.60;;;;;;;;;;5053948;28;20491;-79
2021/07/17 07:38:13;;;;;;;34.10;18.33;;;;;;;;;;5054371;28;20888;-79
2021/07/17 07:40:38;;;;;;;29.90;18.17;;;;;;;;;;5052649;28;20474;-79
2021/07/17 07:43:04;;;;;;;31.93;20.00;;;;;;;;;;5053701;28;20922;-79
2021/07/17 07:45:30;;;;;;;28.53;18.60;;;;;;;;;;5053147;28;20539;-79
2021/07/17 07:47:57;;;;;;;31.70;20.27;;;;;;;;;;5053924;28;20504;-79
2021/07/17 07:50:23;;;;;;;31.93;19.20;;;;;;;;;;5053790;28;20476;-80
2021/07/17 07:52:50;;;;;;;29.33;18.03;;;;;;;;;;5052292;28;20950;-79
2021/07/17 07:55:17;;;;;;;28.90;15.13;;;;;;;;;;5053584;28;20454;-79
2021/07/17 07:57:43;;;;;;;26.07;17.30;;;;;;;;;;5053678;28;20471;-79
2021/07/17 08:00:10;;;;;;;35.80;18.07;;;;;;;;;;5035937;28;20424;-79
2021/07/17 08:02:36;;;;;;;25.00;17.27;;;;;;;;;;5053525;28;20412;-79
2021/07/17 08:05:01;;;;;;;27.87;18.30;;;;;;;;;;5053079;28;20435;-80
2021/07/17 08:07:27;;;;;;;36.20;26.80;;;;;;;;;;5035746;28;20761;-79
2021/07/17 08:09:53;;;;;;;37.33;27.40;;;;;;;;;;5053326;28;20455;-79
2021/07/17 08:12:20;;;;;;;38.50;27.23;;;;;;;;;;5052393;28;20827;-79
2021/07/17 08:14:46;;;;;;;38.50;27.53;;;;;;;;;;5053098;28;20430;-79
2021/07/17 08:17:12;;;;;;;35.20;26.47;;;;;;;;;;5053642;28;20779;-80
2021/07/17 08:19:38;;;;;;;34.80;27.60;;;;;;;;;;5053570;28;20396;-79
2021/07/17 08:22:04;;;;;;;37.97;27.67;;;;;;;;;;5053342;28;20401;-79
2021/07/17 08:24:30;;;;;;;39.23;29.47;;;;;;;;;;5051532;28;20413;-80
2021/07/17 08:26:56;;;;;;;37.10;28.83;;;;;;;;;;5053113;28;20887;-79
2021/07/17 08:29:22;;;;;;;32.70;28.07;;;;;;;;;;5053174;28;20391;-78
2021/07/17 08:31:48;;;;;;;37.87;29.30;;;;;;;;;;5053167;28;20517;-79
2021/07/17 08:34:14;;;;;;;42.63;29.70;;;;;;;;;;5034791;28;20527;-79
2021/07/17 08:36:40;;;;;;;33.07;25.60;;;;;;;;;;5053230;28;20446;-80
2021/07/17 08:39:06;;;;;;;35.20;25.77;;;;;;;;;;5052906;28;20931;-79
2021/07/17 08:41:34;;;;;;;37.23;25.70;;;;;;;;;;5053212;28;20395;-79
2021/07/17 08:44:00;;;;;;;32.83;24.90;;;;;;;;;;5051316;28;20416;-79
2021/07/17 08:46:27;;;;;;;30.10;22.20;;;;;;;;;;5052997;28;20415;-79
2021/07/17 08:48:54;;;;;;;33.43;22.60;;;;;;;;;;5051785;28;20395;-79
2021/07/17 08:51:21;;;;;;;37.20;23.83;;;;;;;;;;5052891;28;21006;-80
2021/07/17 08:53:47;;;;;;;23.60;16.73;;;;;;;;;;5052650;28;20412;-79
2021/07/17 08:56:13;;;;;;;29.87;18.60;;;;;;;;;;5053336;28;20415;-79
2021/07/17 08:58:39;;;;;;;29.60;19.53;;;;;;;;;;5057006;28;20419;-78
2021/07/17 09:01:05;;;;;;;29.20;18.27;;;;;;;;;;5056946;28;20423;-79
2021/07/17 09:03:31;;;;;;;27.90;19.93;;;;;;;;;;5056617;28;20473;-80
2021/07/17 09:05:57;;;;;;;26.63;22.70;;;;;;;;;;5056734;28;20432;-79
2021/07/17 09:08:24;;;;;;;30.80;20.47;;;;;;;;;;5055552;28;20485;-78
2021/07/17 09:10:53;;;;;;;28.60;20.60;;;;;;;;;;5055622;28;21017;-79
2021/07/17 09:13:26;;;;;;;31.10;19.63;;;;;;;;;;5056414;28;20493;-80
2021/07/17 09:15:58;;;;;;;36.50;18.70;;;;;;;;;;5056672;28;20409;-79
2021/07/17 09:18:27;;;;;;;26.70;18.60;;;;;;;;;;5056863;28;20396;-79
2021/07/17 09:20:56;;;;;;;29.57;19.57;;;;;;;;;;5056775;28;20408;-79
2021/07/17 09:23:24;;;;;;;24.27;17.53;;;;;;;;;;5056341;28;20408;-79
2021/07/17 09:25:50;;;;;;;34.97;19.70;;;;;;;;;;5056551;28;20438;-79
2021/07/17 09:28:22;;;;;;;26.20;19.47;;;;;;;;;;5056563;28;20391;-79
2021/07/17 09:30:49;;;;;;;27.50;19.27;;;;;;;;;;5056374;28;20466;-80
2021/07/17 09:33:16;;;;;;;29.13;19.90;;;;;;;;;;5056126;28;20408;-79
2021/07/17 09:35:43;;;;;;;30.13;19.63;;;;;;;;;;5056021;28;20444;-79
2021/07/17 09:38:09;;;;;;;28.30;19.07;;;;;;;;;;5056464;28;20408;-79
2021/07/17 09:40:43;;;;;;;30.93;20.10;;;;;;;;;;5056386;28;20386;-80
2021/07/17 09:43:09;;;;;;;26.40;19.03;;;;;;;;;;5056203;28;20390;-79
2021/07/17 09:45:39;;;;;;;24.13;19.30;;;;;;;;;;5056057;28;20418;-79
2021/07/17 09:48:21;;;;;;;27.80;21.00;;;;;;;;;;5054914;28;20394;-80
2021/07/17 09:50:47;;;;;;;29.73;21.73;;;;;;;;;;5056043;28;20466;-79
2021/07/17 09:53:17;;;;;;;31.20;20.50;;;;;;;;;;5054610;28;20427;-80
2021/07/17 09:55:42;;;;;;;33.53;20.43;;;;;;;;;;5055677;28;20420;-80
2021/07/17 09:58:09;;;;;;;22.83;20.20;;;;;;;;;;5055853;28;20473;-80
2021/07/17 10:00:35;;;;;;;29.83;21.70;;;;;;;;;;5054477;28;20394;-79
2021/07/17 10:03:12;;;;;;;29.70;22.10;;;;;;;;;;5055648;28;20387;-79
2021/07/17 10:05:39;;;;;;;29.67;20.87;;;;;;;;;;5055461;28;20406;-79
2021/07/17 10:08:09;;;;;;;29.23;20.70;;;;;;;;;;5054833;28;20416;-79
2021/07/17 10:10:35;;;;;;;28.10;20.87;;;;;;;;;;5055579;28;20463;-79
2021/07/17 10:13:01;;;;;;;31.50;21.67;;;;;;;;;;5055386;28;20434;-80
2021/07/17 10:15:31;;;;;;;23.53;20.50;;;;;;;;;;5055470;28;20797;-79
2021/07/17 10:18:03;;;;;;;21.10;17.80;;;;;;;;;;5054103;28;20387;-78
2021/07/17 10:20:30;;;;;;;28.20;20.00;;;;;;;;;;5055550;28;20387;-78
2021/07/17 10:22:56;;;;;;;24.73;18.37;;;;;;;;;;5055246;28;20439;-80
2021/07/17 10:25:22;;;;;;;20.77;16.93;;;;;;;;;;5054131;28;20460;-79
2021/07/17 10:27:49;;;;;;;25.93;18.30;;;;;;;;;;5055678;28;20412;-79
2021/07/17 10:30:15;;;;;;;22.37;17.67;;;;;;;;;;5055488;28;20503;-80
2021/07/17 10:32:42;;;;;;;23.73;18.37;;;;;;;;;;5055454;28;20804;-79
2021/07/17 10:35:08;;;;;;;20.67;16.97;;;;;;;;;;5055077;28;20818;-80
2021/07/17 10:37:36;;;;;;;27.67;16.80;;;;;;;;;;5053926;28;20431;-79
2021/07/17 10:40:16;;;;;;;19.20;16.00;;;;;;;;;;5053803;28;20409;-79
2021/07/17 10:42:47;;;;;;;22.93;15.00;;;;;;;;;;5055095;28;20404;-79
2021/07/17 10:45:31;;;;;;;22.50;16.93;;;;;;;;;;5055003;28;20424;-79
2021/07/17 10:47:57;;;;;;;24.67;15.90;;;;;;;;;;5055098;28;20400;-76
2021/07/17 10:50:31;;;;;;;22.00;15.97;;;;;;;;;;5053453;28;20495;-79
2021/07/17 10:52:57;;;;;;;17.90;14.93;;;;;;;;;;5054659;28;20875;-80
2021/07/17 10:55:23;;;;;;;20.77;14.90;;;;;;;;;;5054820;28;20428;-77
2021/07/17 10:57:49;;;;;;;19.30;13.27;;;;;;;;;;5054703;28;20912;-77
2021/07/17 11:00:34;;;;;;;19.03;11.80;;;;;;;;;;5053326;28;20524;-77
2021/07/17 11:03:21;;;;;;;18.10;11.80;;;;;;;;;;5054441;28;20415;-77
2021/07/17 11:05:47;;;;;;;16.07;12.20;;;;;;;;;;5054535;28;20424;-77
2021/07/17 11:08:28;;;;;;;17.50;13.20;;;;;;;;;;5054414;28;20411;-78
2021/07/17 11:10:54;;;;;;;15.23;11.70;;;;;;;;;;5054672;28;20459;-78
2021/07/17 11:13:30;;;;;;;16.27;11.30;;;;;;;;;;5054128;28;20408;-77
2021/07/17 11:15:56;;;;;;;17.70;12.30;;;;;;;;;;5053289;28;20826;-77
2021/07/17 11:18:25;;;;;;;20.20;13.20;;;;;;;;;;5054309;28;20408;-78
2021/07/17 11:20:58;;;;;;;17.60;12.90;;;;;;;;;;5053196;28;20420;-77
2021/07/17 11:23:24;;;;;;;18.90;10.93;;;;;;;;;;5052750;28;20424;-77
2021/07/17 11:25:53;;;;;;;15.67;11.90;;;;;;;;;;5054247;28;20804;-77
2021/07/17 11:28:39;;;;;;;12.73;11.00;;;;;;;;;;5052877;28;20751;-78
2021/07/17 11:31:28;;;;;;;16.50;10.30;;;;;;;;;;5051499;28;20544;-77
2021/07/17 11:34:20;;;;;;;14.53;9.97;;;;;;;;;;5048250;28;20419;-78
2021/07/17 11:36:48;;;;;;;12.77;8.93;;;;;;;;;;5043559;28;20428;-78
2021/07/17 11:39:19;;;;;;;14.00;9.43;;;;;;;;;;5054251;28;20408;-78
2021/07/17 11:41:45;;;;;;;11.67;9.00;;;;;;;;;;5054148;28;20411;-77
2021/07/17 11:44:11;;;;;;;12.80;8.67;;;;;;;;;;5052270;28;20823;-77
2021/07/17 11:46:51;;;;;;;13.57;8.63;;;;;;;;;;5052106;28;20507;-78
2021/07/17 11:49:17;;;;;;;12.07;8.63;;;;;;;;;;5053719;28;20418;-77
2021/07/17 11:51:50;;;;;;;15.70;8.17;;;;;;;;;;5053586;28;20471;-77
2021/07/17 11:54:24;;;;;;;11.40;6.00;;;;;;;;;;5053322;28;20423;-78
2021/07/17 11:57:02;;;;;;;14.07;5.53;;;;;;;;;;5053538;28;20411;-78
2021/07/17 11:59:28;;;;;;;9.77;5.67;;;;;;;;;;5053545;28;20412;-79
2021/07/17 12:02:12;;;;;;;6.60;4.43;;;;;;;;;;5035677;28;20428;-78
2021/07/17 12:04:47;;;;;;;14.77;4.60;;;;;;;;;;5053056;28;20832;-78
2021/07/17 12:07:15;;;;;;;11.87;5.17;;;;;;;;;;5053189;28;20855;-78
2021/07/17 12:09:44;;;;;;;12.87;4.87;;;;;;;;;;5053371;28;20416;-78
2021/07/17 12:12:14;;;;;;;6.03;4.00;;;;;;;;;;5051953;28;20468;-78
2021/07/17 12:14:40;;;;;;;7.43;3.80;;;;;;;;;;5053086;28;20458;-77
2021/07/17 12:17:06;;;;;;;11.00;4.30;;;;;;;;;;5053200;28;20455;-78
2021/07/17 12:19:32;;;;;;;6.97;3.73;;;;;;;;;;5053325;28;20423;-78
2021/07/17 12:21:58;;;;;;;6.70;3.73;;;;;;;;;;5053246;28;20420;-78
2021/07/17 12:24:24;;;;;;;9.43;2.87;;;;;;;;;;5051702;28;20905;-78
2021/07/17 12:26:51;;;;;;;10.10;3.60;;;;;;;;;;5053236;28;20522;-79
2021/07/17 12:29:17;;;;;;;10.37;4.20;;;;;;;;;;5053324;28;20404;-78
2021/07/17 12:31:59;;;;;;;9.27;4.13;;;;;;;;;;5052812;28;20822;-78
2021/07/17 12:34:25;;;;;;;6.80;3.37;;;;;;;;;;5051385;28;20447;-78
2021/07/17 12:36:51;;;;;;;6.20;3.87;;;;;;;;;;5053077;28;20870;-78
2021/07/17 12:39:21;;;;;;;6.97;3.67;;;;;;;;;;5053034;28;20501;-78
2021/07/17 12:41:47;;;;;;;6.67;3.33;;;;;;;;;;5053179;28;20550;-77
2021/07/17 12:44:16;;;;;;;5.80;3.03;;;;;;;;;;5051423;28;20447;-78
2021/07/17 12:46:45;;;;;;;9.47;4.23;;;;;;;;;;5052754;28;20509;-78
2021/07/17 12:49:19;;;;;;;5.70;3.37;;;;;;;;;;5052772;28;20400;-78
2021/07/17 12:51:49;;;;;;;11.00;3.57;;;;;;;;;;5051546;28;20466;-78
2021/07/17 12:54:19;;;;;;;6.80;3.20;;;;;;;;;;5052533;28;20424;-78
2021/07/17 12:56:47;;;;;;;6.70;3.60;;;;;;;;;;5052777;28;20400;-78
2021/07/17 12:59:13;;;;;;;7.70;3.57;;;;;;;;;;5052778;28;20486;-78
2021/07/17 13:01:44;;;;;;;5.43;2.63;;;;;;;;;;5051491;28;20416;-78
2021/07/17 13:04:11;;;;;;;5.80;3.00;;;;;;;;;;5051271;28;20440;-78
2021/07/17 13:06:37;;;;;;;15.37;3.50;;;;;;;;;;5051358;28;20469;-78
2021/07/17 13:09:03;;;;;;;8.33;3.27;;;;;;;;;;5052719;28;20408;-78
2021/07/17 13:11:30;;;;;;;7.83;3.87;;;;;;;;;;5052544;28;20498;-78
2021/07/17 13:13:57;;;;;;;6.80;3.20;;;;;;;;;;5051028;28;20412;-78
2021/07/17 13:16:26;;;;;;;5.67;3.37;;;;;;;;;;5051425;28;20401;-78
2021/07/17 13:18:53;;;;;;;5.30;3.20;;;;;;;;;;5052944;28;20400;-78
2021/07/17 13:21:19;;;;;;;4.87;3.33;;;;;;;;;;5052784;28;20423;-78
2021/07/17 13:23:52;;;;;;;6.80;2.77;;;;;;;;;;5052542;28;20418;-78
2021/07/17 13:26:22;;;;;;;10.83;3.60;;;;;;;;;;5051354;28;20415;-79
2021/07/17 13:28:49;;;;;;;4.90;2.87;;;;;;;;;;5052608;28;20427;-78
2021/07/17 13:31:19;;;;;;;4.97;2.67;;;;;;;;;;5051107;28;20471;-78
2021/07/17 13:33:45;;;;;;;6.13;2.50;;;;;;;;;;5052024;28;20404;-78
2021/07/17 13:36:11;;;;;;;5.40;2.60;;;;;;;;;;5051296;28;20456;-79
2021/07/17 13:38:37;;;;;;;5.20;3.47;;;;;;;;;;5051330;28;20408;-78
2021/07/17 13:41:14;;;;;;;8.40;2.70;;;;;;;;;;5052472;28;20497;-78
2021/07/17 13:43:42;;;;;;;6.20;2.80;;;;;;;;;;5051909;28;20419;-77
2021/07/17 13:46:08;;;;;;;5.27;2.90;;;;;;;;;;5056432;28;20526;-78
2021/07/17 13:48:34;;;;;;;5.50;2.93;;;;;;;;;;5056036;28;20776;-78
2021/07/17 13:51:05;;;;;;;8.47;2.60;;;;;;;;;;5056032;28;20864;-78
2021/07/17 13:53:31;;;;;;;5.43;2.70;;;;;;;;;;5055735;28;20436;-78
2021/07/17 13:56:05;;;;;;;6.23;3.20;;;;;;;;;;5055986;28;20536;-78
2021/07/17 13:58:30;;;;;;;7.30;3.43;;;;;;;;;;5056008;28;20878;-78
2021/07/17 14:01:15;;;;;;;5.30;3.00;;;;;;;;;;5055978;28;20452;-78
2021/07/17 14:03:42;;;;;;;7.90;3.20;;;;;;;;;;5055507;28;20415;-78
2021/07/17 14:06:10;;;;;;;7.83;3.23;;;;;;;;;;5038141;28;20804;-78
2021/07/17 14:08:37;;;;;;;6.20;2.80;;;;;;;;;;5054569;28;20419;-78
2021/07/17 14:11:05;;;;;;;8.40;2.93;;;;;;;;;;5055698;28;20984;-78
2021/07/17 14:13:31;;;;;;;9.83;3.70;;;;;;;;;;5055368;28;20494;-78
2021/07/17 14:15:57;;;;;;;7.50;2.90;;;;;;;;;;5055418;28;20427;-78
2021/07/17 14:18:24;;;;;;;6.03;3.20;;;;;;;;;;5054337;28;20420;-78
2021/07/17 14:20:51;;;;;;;6.27;2.77;;;;;;;;;;5055653;28;20929;-78
2021/07/17 14:23:16;;;;;;;6.00;3.30;;;;;;;;;;5055200;28;20408;-78